createdAt,value
2023-05-19T00:00:37.314Z,68.31
2023-05-19T00:03:05.059Z,68.35
2023-05-19T00:05:32.020Z,68.19
2023-05-19T00:08:00.808Z,69.01
2023-05-19T00:10:31.654Z,69.11
2023-05-19T00:12:59.076Z,69.23
2023-05-19T00:15:25.983Z,69.15
2023-05-19T00:17:52.588Z,69.34
2023-05-19T00:20:19.253Z,69.01
2023-05-19T00:22:45.895Z,70.13
2023-05-19T00:25:12.550Z,69.67
2023-05-19T00:27:39.109Z,70.25
2023-05-19T00:30:08.379Z,70.43
2023-05-19T00:32:35.117Z,70.55
2023-05-19T00:35:01.697Z,70.12
2023-05-19T00:37:28.290Z,71.24
2023-05-19T00:39:54.828Z,70.89
2023-05-19T00:42:21.533Z,71.45
2023-05-19T00:44:48.252Z,71.35
2023-05-19T00:47:14.840Z,71.34
2023-05-19T00:49:41.573Z,72.34
2023-05-19T00:52:08.249Z,72.25
2023-05-19T00:54:34.901Z,72.35
2023-05-19T00:57:01.645Z,73.01
2023-05-19T00:59:28.221Z,72.87
2023-05-19T01:01:54.930Z,73.13
2023-05-19T01:04:22.325Z,72.84
2023-05-19T01:06:57.964Z,72.77
2023-05-19T01:09:24.546Z,73.03
2023-05-19T01:11:51.439Z,73.02
2023-05-19T01:14:19.666Z,73.58
2023-05-19T01:17:05.517Z,74.31
2023-05-19T01:20:02.118Z,74.51
2023-05-19T01:22:43.044Z,74.96
2023-05-19T01:25:47.465Z,75.33
2023-05-19T01:28:41.871Z,76.02
2023-05-19T01:31:11.822Z,76.02
2023-05-19T01:33:41.144Z,76.21
2023-05-19T01:36:08.449Z,76.42
2023-05-19T01:38:37.983Z,76.54
2023-05-19T01:41:06.619Z,76.81
2023-05-19T01:43:33.412Z,76.52
2023-05-19T01:46:01.317Z,76.71
2023-05-19T01:48:29.075Z,76.88
2023-05-19T01:50:57.449Z,77.14
2023-05-19T01:53:24.966Z,77.03
2023-05-19T01:55:57.309Z,77.09
2023-05-19T01:58:41.520Z,77.52
2023-05-19T02:01:23.050Z,77.60
2023-05-19T02:04:16.302Z,77.03
2023-05-19T02:07:01.366Z,76.42
2023-05-19T02:09:52.166Z,76.45
2023-05-19T02:12:27.935Z,76.23
2023-05-19T02:14:57.727Z,76.43
2023-05-19T02:17:29.803Z,76.89
2023-05-19T02:19:56.860Z,77.31
2023-05-19T02:22:23.409Z,77.82
2023-05-19T02:24:51.672Z,77.84
2023-05-19T02:27:18.747Z,78.88
2023-05-19T02:29:45.344Z,78.75
2023-05-19T02:32:12.163Z,79.30
2023-05-19T02:34:38.783Z,79.33
2023-05-19T02:37:05.593Z,79.71
2023-05-19T02:39:35.146Z,79.95
2023-05-19T02:42:01.701Z,79.69
2023-05-19T02:44:28.440Z,79.42
2023-05-19T02:46:55.083Z,80.01
2023-05-19T02:49:21.618Z,79.60
2023-05-19T02:51:48.238Z,79.52
2023-05-19T02:54:14.765Z,79.90
2023-05-19T02:56:41.321Z,79.89
2023-05-19T02:59:08.099Z,80.06
2023-05-19T03:01:34.702Z,80.69
2023-05-19T03:04:01.473Z,80.41
2023-05-19T03:06:28.271Z,80.20
2023-05-19T03:08:54.847Z,80.14
2023-05-19T03:11:23.296Z,79.95
2023-05-19T03:13:49.957Z,80.14
2023-05-19T03:16:16.442Z,79.76
2023-05-19T03:18:43.055Z,80.14
2023-05-19T03:21:09.800Z,80.14
2023-05-19T03:23:36.334Z,81.31
2023-05-19T03:26:04.227Z,81.24
2023-05-19T03:28:30.854Z,81.04
2023-05-19T03:30:57.467Z,80.94
2023-05-19T03:33:24.228Z,81.37
2023-05-19T03:35:53.060Z,81.06
2023-05-19T03:38:19.643Z,81.07
2023-05-19T03:40:46.156Z,81.06
2023-05-19T03:43:13.156Z,80.99
2023-05-19T03:45:40.061Z,81.38
2023-05-19T03:48:06.757Z,80.67
2023-05-19T03:50:34.151Z,80.91
2023-05-19T03:53:01.035Z,81.26
2023-05-19T03:55:29.907Z,81.57
2023-05-19T03:57:57.277Z,81.36
2023-05-19T04:00:24.765Z,81.41
2023-05-19T04:02:51.447Z,81.33
2023-05-19T04:05:21.101Z,81.87
2023-05-19T04:07:47.665Z,81.55
2023-05-19T04:10:17.472Z,81.47
2023-05-19T04:12:44.008Z,81.55
2023-05-19T04:15:13.694Z,81.96
2023-05-19T04:17:40.619Z,81.86
2023-05-19T04:20:07.623Z,82.02
2023-05-19T04:22:34.260Z,81.21
2023-05-19T04:25:00.919Z,81.46
2023-05-19T04:27:29.124Z,81.40
2023-05-19T04:29:56.164Z,81.31
2023-05-19T04:32:22.962Z,81.09
2023-05-19T04:34:49.477Z,80.74
2023-05-19T04:37:20.006Z,81.20
2023-05-19T04:39:46.502Z,80.98
2023-05-19T04:42:13.421Z,81.11
2023-05-19T04:44:40.322Z,80.56
2023-05-19T04:47:08.849Z,81.09
2023-05-19T04:49:39.012Z,80.93
2023-05-19T04:52:11.670Z,80.28
2023-05-19T04:54:39.368Z,80.65
2023-05-19T04:57:06.402Z,79.72
2023-05-19T04:59:32.963Z,79.48
2023-05-19T05:01:59.855Z,78.88
2023-05-19T05:04:26.560Z,78.36
2023-05-19T05:06:53.059Z,78.25
2023-05-19T05:09:20.160Z,78.15
2023-05-19T05:11:46.916Z,77.80
2023-05-19T05:14:13.710Z,78.05
2023-05-19T05:16:40.896Z,77.76
2023-05-19T05:19:07.914Z,77.12
2023-05-19T05:21:34.746Z,77.33
2023-05-19T05:24:01.599Z,76.96
2023-05-19T05:26:34.502Z,76.70
2023-05-19T05:29:01.824Z,76.20
2023-05-19T05:31:28.730Z,75.63
2023-05-19T05:33:55.552Z,75.11
2023-05-19T05:36:22.139Z,74.40
2023-05-19T05:38:48.732Z,74.50
2023-05-19T05:41:16.030Z,74.47
2023-05-19T05:43:42.594Z,73.86
2023-05-19T05:46:09.276Z,71.89
2023-05-19T05:48:36.132Z,71.38
2023-05-19T05:51:03.071Z,71.51
2023-05-19T05:53:32.270Z,70.49
2023-05-19T05:55:59.430Z,70.64
2023-05-19T05:58:25.939Z,70.75
2023-05-19T06:00:53.510Z,70.98
2023-05-19T06:03:24.277Z,69.92
2023-05-19T06:05:51.137Z,69.76
2023-05-19T06:08:17.915Z,69.12
2023-05-19T06:10:47.097Z,68.75
2023-05-19T06:13:14.079Z,68.49
2023-05-19T06:15:50.046Z,67.79
2023-05-19T06:18:20.063Z,67.72
2023-05-19T06:20:46.564Z,67.63
2023-05-19T06:23:13.139Z,67.53
2023-05-19T06:25:39.651Z,67.33
2023-05-19T06:28:09.325Z,65.48
2023-05-19T06:35:39.104Z,62.99
2023-05-19T06:38:05.825Z,62.77
2023-05-19T06:40:32.514Z,62.34
2023-05-19T06:42:59.378Z,62.16
2023-05-19T06:45:26.004Z,60.66
2023-05-19T06:47:54.128Z,60.97
2023-05-19T06:50:20.966Z,60.06
2023-05-19T06:52:47.467Z,59.44
2023-05-19T06:55:13.962Z,57.89
2023-05-19T06:57:40.484Z,57.97
2023-05-19T07:00:11.496Z,57.60
2023-05-19T07:02:39.163Z,57.86
2023-05-19T07:05:06.061Z,57.82
2023-05-19T07:07:32.542Z,57.66
2023-05-19T07:09:59.244Z,57.79
2023-05-19T07:12:26.608Z,57.69
2023-05-19T07:14:53.403Z,56.36
2023-05-19T07:17:20.512Z,56.22
2023-05-19T07:19:47.079Z,56.33
2023-05-19T07:22:15.134Z,55.36
2023-05-19T07:24:41.647Z,55.63
2023-05-19T07:27:08.455Z,56.30
2023-05-19T07:29:34.979Z,55.14
2023-05-19T07:32:01.537Z,54.64
2023-05-19T07:34:28.224Z,53.58
2023-05-19T07:36:54.868Z,53.27
2023-05-19T07:39:21.572Z,53.62
2023-05-19T07:41:52.746Z,52.96
2023-05-19T07:44:19.552Z,52.85
2023-05-19T07:46:46.047Z,53.51
2023-05-19T07:49:12.619Z,53.06
2023-05-19T07:51:39.296Z,51.53
2023-05-19T07:54:05.860Z,52.45
2023-05-19T07:56:32.369Z,51.83
2023-05-19T07:58:58.872Z,52.53
2023-05-19T08:01:26.161Z,51.55
2023-05-19T08:03:53.191Z,51.69
2023-05-19T08:06:19.951Z,50.26
2023-05-19T08:08:47.294Z,47.65
2023-05-19T08:11:14.110Z,45.54
2023-05-19T08:13:41.127Z,46.28
2023-05-19T08:16:07.964Z,43.22
2023-05-19T08:18:34.583Z,41.73
2023-05-19T08:21:01.482Z,38.16
2023-05-19T08:23:28.029Z,37.52
2023-05-19T08:25:54.575Z,39.11
2023-05-19T08:28:21.061Z,40.46
2023-05-19T08:30:47.635Z,38.43
2023-05-19T08:33:14.227Z,40.29
2023-05-19T08:35:40.902Z,39.24
2023-05-19T08:38:07.399Z,40.70
2023-05-19T08:40:37.437Z,41.16
2023-05-19T08:43:04.053Z,36.89
2023-05-19T08:45:31.612Z,38.80
2023-05-19T08:47:58.475Z,39.83
2023-05-19T08:50:30.806Z,38.12
2023-05-19T08:53:32.372Z,37.37
2023-05-19T08:56:11.235Z,36.13
2023-05-19T08:58:43.792Z,36.12
2023-05-19T09:01:17.684Z,37.00
2023-05-19T09:03:46.000Z,36.48
2023-05-19T09:06:13.295Z,36.17
2023-05-19T09:08:41.114Z,35.54
2023-05-19T09:11:09.579Z,34.73
2023-05-19T09:13:36.502Z,33.84
2023-05-19T09:16:03.732Z,33.51
2023-05-19T09:18:31.273Z,33.76
2023-05-19T09:21:03.231Z,34.14
2023-05-19T09:23:33.582Z,35.89
2023-05-19T09:26:07.451Z,38.51
2023-05-19T09:28:36.328Z,39.16
2023-05-19T09:31:10.225Z,39.12
2023-05-19T09:33:45.487Z,37.54
2023-05-19T09:36:12.822Z,39.08
2023-05-19T09:38:40.158Z,37.21
2023-05-19T09:41:08.487Z,36.50
2023-05-19T09:43:35.577Z,36.47
2023-05-19T09:46:07.519Z,36.90
2023-05-19T09:48:36.443Z,36.21
2023-05-19T09:51:06.259Z,34.79
2023-05-19T09:53:34.324Z,33.48
2023-05-19T09:56:03.485Z,33.95
2023-05-19T09:58:35.338Z,34.82
2023-05-19T10:01:06.384Z,31.56
2023-05-19T10:03:34.121Z,30.71
2023-05-19T10:06:09.160Z,30.83
2023-05-19T10:08:37.642Z,31.14
2023-05-19T10:11:08.635Z,30.02
2023-05-19T10:13:38.602Z,30.40
2023-05-19T10:16:06.195Z,30.72
2023-05-19T10:18:33.573Z,31.25
2023-05-19T10:21:00.984Z,32.64
2023-05-19T10:23:27.575Z,31.42
2023-05-19T10:25:58.278Z,29.98
2023-05-19T10:28:28.161Z,30.23
2023-05-19T10:30:58.788Z,30.39
2023-05-19T10:33:40.958Z,29.92
2023-05-19T10:36:33.175Z,30.61
2023-05-19T10:39:17.822Z,33.96
2023-05-19T10:41:47.324Z,34.11
2023-05-19T10:44:25.768Z,32.34
2023-05-19T10:46:54.301Z,31.93
2023-05-19T10:49:23.673Z,32.23
2023-05-19T10:51:52.038Z,31.15
2023-05-19T10:54:47.313Z,30.19
2023-05-19T10:57:17.827Z,30.85
2023-05-19T10:59:44.877Z,28.19
2023-05-19T11:02:39.813Z,26.83
2023-05-19T11:05:18.406Z,26.44
2023-05-19T11:07:57.206Z,27.70
2023-05-19T11:10:24.858Z,28.96
2023-05-19T11:12:52.230Z,28.84
2023-05-19T11:15:19.017Z,27.92
2023-05-19T11:17:48.549Z,26.64
2023-05-19T11:20:25.633Z,26.50
2023-05-19T11:23:05.928Z,27.10
2023-05-19T11:25:49.574Z,26.35
2023-05-19T11:28:19.446Z,27.32
2023-05-19T11:30:50.639Z,29.33
2023-05-19T11:33:19.403Z,31.21
2023-05-19T11:35:47.062Z,32.04
2023-05-19T11:38:14.222Z,30.76
2023-05-19T11:40:42.928Z,32.35
2023-05-19T11:43:09.415Z,30.40
2023-05-19T11:45:36.380Z,28.97
2023-05-19T11:48:03.816Z,27.21
2023-05-19T11:50:31.909Z,26.96
2023-05-19T11:53:00.331Z,27.30
2023-05-19T11:55:27.560Z,26.40
2023-05-19T11:58:03.991Z,27.50
2023-05-19T12:00:40.217Z,26.71
2023-05-19T12:03:08.321Z,27.04
2023-05-19T12:05:40.884Z,26.94
2023-05-19T12:08:09.828Z,26.33
2023-05-19T12:10:38.239Z,25.06
2023-05-19T12:13:08.904Z,26.26
2023-05-19T12:15:36.532Z,26.36
2023-05-19T12:18:03.509Z,27.42
2023-05-19T12:20:35.471Z,29.41
2023-05-19T12:23:03.016Z,27.84
2023-05-19T12:25:31.222Z,26.62
2023-05-19T12:27:59.809Z,27.39
2023-05-19T12:30:28.809Z,29.38
2023-05-19T12:32:59.380Z,30.29
2023-05-19T12:35:30.592Z,28.90
2023-05-19T12:37:57.828Z,27.65
2023-05-19T12:40:26.293Z,26.10
2023-05-19T12:42:58.880Z,26.43
2023-05-19T12:45:28.010Z,26.79
2023-05-19T12:47:55.345Z,25.77
2023-05-19T12:50:22.138Z,26.01
2023-05-19T12:52:53.278Z,26.55
2023-05-19T12:55:21.003Z,26.78
2023-05-19T12:57:57.961Z,25.83
2023-05-19T13:00:28.134Z,25.30
2023-05-19T13:03:08.633Z,25.08
2023-05-19T13:05:43.433Z,25.00
2023-05-19T13:08:11.945Z,24.63
2023-05-19T13:10:40.179Z,26.66
2023-05-19T13:13:07.809Z,25.37
2023-05-19T13:15:37.809Z,24.64
2023-05-19T13:18:06.408Z,24.30
2023-05-19T13:20:33.516Z,24.96
2023-05-19T13:23:00.468Z,24.62
2023-05-19T13:25:27.434Z,24.22
2023-05-19T13:27:59.307Z,24.54
2023-05-19T13:30:26.148Z,24.27
2023-05-19T13:32:52.760Z,25.70
2023-05-19T13:35:19.696Z,26.96
2023-05-19T13:37:46.482Z,26.48
2023-05-19T13:40:13.482Z,29.78
2023-05-19T13:42:40.643Z,31.03
2023-05-19T13:45:07.816Z,28.10
2023-05-19T13:47:34.395Z,27.92
2023-05-19T13:50:04.416Z,27.13
2023-05-19T13:52:31.269Z,27.21
2023-05-19T13:54:57.853Z,29.45
2023-05-19T13:57:25.534Z,31.26
2023-05-19T14:00:02.026Z,31.80
2023-05-19T14:02:29.959Z,32.45
2023-05-19T14:04:56.966Z,32.79
2023-05-19T14:07:23.665Z,31.70
2023-05-19T14:09:51.189Z,30.84
2023-05-19T14:12:17.932Z,30.91
2023-05-19T14:14:44.731Z,29.88
2023-05-19T14:17:12.194Z,29.74
2023-05-19T14:19:38.952Z,28.27
2023-05-19T14:22:05.899Z,27.44
2023-05-19T14:24:32.630Z,27.07
2023-05-19T14:26:59.169Z,27.75
2023-05-19T14:29:27.663Z,27.80
2023-05-19T14:31:54.213Z,27.62
2023-05-19T14:34:21.174Z,28.19
2023-05-19T14:36:48.651Z,27.84
2023-05-19T14:39:15.728Z,27.66
2023-05-19T14:41:42.409Z,28.98
2023-05-19T14:44:08.868Z,30.11
2023-05-19T14:46:36.169Z,29.96
2023-05-19T14:49:03.518Z,28.75
2023-05-19T14:51:30.078Z,28.18
2023-05-19T14:53:56.643Z,27.46
2023-05-19T14:56:23.358Z,28.49
2023-05-19T14:58:49.961Z,27.77
2023-05-19T15:01:16.542Z,28.29
2023-05-19T15:03:43.111Z,28.96
2023-05-19T15:06:13.084Z,27.84
2023-05-19T15:08:40.776Z,28.49
2023-05-19T15:11:07.754Z,28.59
2023-05-19T15:13:34.413Z,28.07
2023-05-19T15:16:15.576Z,28.42
2023-05-19T15:18:43.422Z,30.26
2023-05-19T15:21:10.209Z,31.06
2023-05-19T15:23:36.715Z,30.32
2023-05-19T15:26:03.330Z,30.03
2023-05-19T15:28:29.935Z,29.64
2023-05-19T15:30:56.520Z,29.48
2023-05-19T15:33:23.058Z,29.09
2023-05-19T15:35:51.696Z,29.62
2023-05-19T15:38:19.253Z,28.90
2023-05-19T15:40:46.638Z,28.35
2023-05-19T15:43:13.458Z,28.25
2023-05-19T15:45:40.011Z,28.49
2023-05-19T15:48:06.834Z,29.22
2023-05-19T15:50:33.889Z,29.30
2023-05-19T15:53:00.717Z,28.78
2023-05-19T15:55:27.220Z,29.58
2023-05-19T15:57:53.809Z,29.76
2023-05-19T16:00:20.499Z,30.73
2023-05-19T16:02:47.113Z,29.94
2023-05-19T16:05:13.737Z,29.48
2023-05-19T16:07:42.000Z,29.52
2023-05-19T16:10:09.091Z,30.03
2023-05-19T16:12:36.637Z,29.21
2023-05-19T16:15:03.731Z,29.11
2023-05-19T16:17:30.510Z,30.11
2023-05-19T16:19:57.056Z,30.14
2023-05-19T16:22:24.797Z,30.10
2023-05-19T16:24:52.254Z,30.64
2023-05-19T16:27:18.981Z,30.55
2023-05-19T16:29:45.651Z,30.12
2023-05-19T16:32:12.830Z,30.56
2023-05-19T16:34:39.711Z,30.98
2023-05-19T16:37:06.256Z,31.30
2023-05-19T16:39:33.197Z,30.89
2023-05-19T16:41:59.802Z,31.13
2023-05-19T16:44:26.615Z,30.72
2023-05-19T16:46:53.166Z,31.17
2023-05-19T16:49:19.687Z,31.80
2023-05-19T16:51:47.577Z,31.38
2023-05-19T16:54:15.453Z,31.46
2023-05-19T16:56:41.953Z,31.43
2023-05-19T16:59:09.375Z,31.31
2023-05-19T17:01:36.121Z,31.72
2023-05-19T17:04:02.631Z,31.55
2023-05-19T17:06:29.362Z,31.93
2023-05-19T17:08:55.960Z,33.03
2023-05-19T17:11:22.850Z,33.18
2023-05-19T17:13:49.382Z,32.64
2023-05-19T17:16:16.030Z,33.21
2023-05-19T17:18:43.821Z,33.32
2023-05-19T17:21:10.676Z,33.27
2023-05-19T17:23:38.154Z,33.91
2023-05-19T17:26:04.942Z,34.44
2023-05-19T17:28:31.749Z,34.38
2023-05-19T17:30:58.461Z,34.79
2023-05-19T17:33:25.138Z,34.60
2023-05-19T17:35:51.744Z,34.64
2023-05-19T17:38:18.317Z,34.71
2023-05-19T17:40:44.805Z,34.98
2023-05-19T17:43:11.441Z,35.01
2023-05-19T17:45:37.992Z,35.11
2023-05-19T17:48:05.121Z,35.19
2023-05-19T17:50:31.965Z,35.28
2023-05-19T17:52:59.062Z,35.53
2023-05-19T17:57:37.179Z,36.03
2023-05-19T18:00:04.395Z,36.33
2023-05-19T18:02:31.487Z,36.23
2023-05-19T18:04:58.309Z,37.11
2023-05-19T18:07:27.776Z,37.01
2023-05-19T18:09:56.086Z,37.29
2023-05-19T18:12:22.828Z,37.38
2023-05-19T18:14:52.445Z,37.84
2023-05-19T18:17:18.949Z,38.23
2023-05-19T18:19:45.797Z,38.92
2023-05-19T18:22:14.772Z,39.35
2023-05-19T18:24:41.519Z,39.52
2023-05-19T18:27:08.055Z,39.87
2023-05-19T18:29:34.852Z,39.86
2023-05-19T18:32:01.443Z,40.14
2023-05-19T18:34:29.480Z,40.40
2023-05-19T18:36:56.212Z,40.58
2023-05-19T18:39:22.730Z,40.66
2023-05-19T18:41:49.760Z,41.14
2023-05-19T18:44:16.306Z,41.35
2023-05-19T18:46:42.858Z,41.48
2023-05-19T18:49:11.602Z,41.84
2023-05-19T18:51:38.568Z,42.00
2023-05-19T18:54:05.312Z,42.50
2023-05-19T18:56:33.245Z,42.76
2023-05-19T18:58:59.949Z,43.20
2023-05-19T19:01:26.669Z,43.49
2023-05-19T19:03:53.313Z,43.47
2023-05-19T19:06:23.351Z,44.09
2023-05-19T19:08:50.170Z,44.25
2023-05-19T19:11:16.821Z,44.38
2023-05-19T19:13:43.740Z,44.68
2023-05-19T19:16:10.689Z,44.66
2023-05-19T19:18:37.450Z,44.95
2023-05-19T19:21:05.966Z,45.06
2023-05-19T19:23:32.934Z,45.31
2023-05-19T19:25:59.665Z,45.65
2023-05-19T19:28:26.492Z,46.03
2023-05-19T19:30:53.059Z,46.26
2023-05-19T19:33:19.632Z,46.57
2023-05-19T19:35:49.028Z,46.87
2023-05-19T19:38:15.650Z,47.05
2023-05-19T19:40:42.210Z,47.14
2023-05-19T19:43:08.741Z,47.19
2023-05-19T19:45:36.442Z,47.34
2023-05-19T19:48:03.027Z,47.55
2023-05-19T19:50:29.575Z,47.72
2023-05-19T19:52:56.103Z,48.01
2023-05-19T19:55:22.691Z,48.25
2023-05-19T19:57:51.072Z,48.52
2023-05-19T20:00:18.570Z,48.69
2023-05-19T20:03:02.837Z,48.84
2023-05-19T20:05:29.902Z,49.16
2023-05-19T20:07:56.493Z,49.11
2023-05-19T20:10:23.142Z,49.39
2023-05-19T20:12:50.547Z,49.54
2023-05-19T20:15:17.300Z,49.98
2023-05-19T20:17:43.876Z,49.99
2023-05-19T20:20:12.208Z,50.30
2023-05-19T20:22:39.479Z,50.71
2023-05-19T20:25:07.020Z,50.85
2023-05-19T20:27:33.709Z,51.20
2023-05-19T20:30:00.257Z,51.28
2023-05-19T20:32:26.982Z,51.19
2023-05-19T20:34:53.573Z,51.55
2023-05-19T20:37:21.620Z,51.32
2023-05-19T20:39:48.193Z,51.45
2023-05-19T20:42:14.839Z,51.72
2023-05-19T20:44:41.623Z,52.04
2023-05-19T20:47:08.509Z,52.10
2023-05-19T20:49:35.097Z,52.31
2023-05-19T20:52:01.859Z,52.34
2023-05-19T20:54:28.400Z,52.71
2023-05-19T20:56:54.929Z,52.73
2023-05-19T20:59:21.880Z,53.07
2023-05-19T21:01:48.456Z,53.05
2023-05-19T21:04:15.062Z,53.19
2023-05-19T21:06:41.692Z,53.39
2023-05-19T21:09:08.226Z,53.60
2023-05-19T21:11:34.754Z,53.77
2023-05-19T21:14:04.168Z,53.94
2023-05-19T21:16:31.468Z,53.83
2023-05-19T21:18:58.423Z,53.98
2023-05-19T21:21:26.186Z,54.31
2023-05-19T21:23:52.787Z,54.58
2023-05-19T21:26:19.399Z,54.59
2023-05-19T21:28:46.180Z,54.76
2023-05-19T21:31:12.798Z,54.75
2023-05-19T21:33:39.660Z,55.05
2023-05-19T21:36:06.482Z,54.91
2023-05-19T21:38:33.018Z,54.82
2023-05-19T21:40:59.512Z,55.02
2023-05-19T21:43:26.498Z,55.27
2023-05-19T21:45:53.010Z,55.36
2023-05-19T21:48:19.778Z,55.38
2023-05-19T21:50:46.429Z,55.14
2023-05-19T21:53:12.922Z,55.16
2023-05-19T21:55:39.432Z,55.70
2023-05-19T21:58:06.181Z,56.03
2023-05-19T22:00:33.042Z,55.92
2023-05-19T22:02:59.943Z,55.96
2023-05-19T22:05:27.045Z,56.33
2023-05-19T22:07:53.624Z,56.24
2023-05-19T22:10:20.213Z,56.42
2023-05-19T22:12:47.062Z,56.40
2023-05-19T22:15:14.415Z,56.39
2023-05-19T22:17:41.072Z,56.42
2023-05-19T22:20:08.289Z,56.60
2023-05-19T22:22:35.407Z,56.55
2023-05-19T22:25:02.743Z,56.63
2023-05-19T22:27:29.253Z,56.53
2023-05-19T22:29:55.737Z,56.40
2023-05-19T22:32:22.231Z,56.82
2023-05-19T22:34:48.855Z,56.99
2023-05-19T22:37:15.372Z,56.95
2023-05-19T22:39:42.169Z,57.13
2023-05-19T22:42:08.757Z,57.25
2023-05-19T22:44:35.331Z,57.04
2023-05-19T22:47:01.828Z,57.13
2023-05-19T22:49:29.953Z,57.19
2023-05-19T22:51:56.445Z,57.49
2023-05-19T22:54:22.973Z,57.80
2023-05-19T22:56:49.529Z,57.99
2023-05-19T22:59:17.912Z,58.02
2023-05-19T23:01:46.560Z,58.25
2023-05-19T23:04:14.048Z,58.39
2023-05-19T23:06:40.741Z,58.44
2023-05-19T23:09:07.705Z,58.54
2023-05-19T23:11:35.847Z,58.58
2023-05-19T23:14:02.505Z,58.68
2023-05-19T23:16:29.204Z,58.87
2023-05-19T23:18:55.794Z,58.95
2023-05-19T23:21:22.356Z,59.03
2023-05-19T23:23:49.674Z,59.11
2023-05-19T23:26:16.198Z,59.21
2023-05-19T23:28:43.367Z,59.29
2023-05-19T23:31:10.360Z,59.55
2023-05-19T23:33:37.138Z,59.38
2023-05-19T23:36:08.044Z,59.73
2023-05-19T23:38:35.450Z,59.94
2023-05-19T23:41:02.776Z,59.88
2023-05-19T23:43:29.326Z,60.04
2023-05-19T23:45:56.014Z,60.36
2023-05-19T23:48:22.526Z,60.52
2023-05-19T23:50:49.198Z,60.58
2023-05-19T23:53:15.922Z,60.49
2023-05-19T23:55:42.453Z,60.58
